sensor_id;sensor_type;location;lat;lon;timestamp;pressure;altitude;pressure_sealevel;temperature;humidity
3082;BME280;1551;51.046;7.010;2022-09-09T00:00:14;100230.72;;;19.28;nan
3082;BME280;1551;51.046;7.010;2022-09-09T00:03:20;100225.81;;;19.39;nan
3082;BME280;1551;51.046;7.010;2022-09-09T00:06:37;100208.50;;;19.55;nan
3082;BME280;1551;51.046;7.010;2022-09-09T00:09:29;100207.75;;;19.69;nan
3082;BME280;1551;51.046;7.010;2022-09-09T00:12:25;100201.38;;;19.90;nan
3082;BME280;1551;51.046;7.010;2022-09-09T00:15:22;100195.97;;;19.93;nan
3082;BME280;1551;51.046;7.010;2022-09-09T00:18:20;100184.56;;;20.41;nan
3082;BME280;1551;51.046;7.010;2022-09-09T00:21:14;100194.28;;;20.08;nan
3082;BME280;1551;51.046;7.010;2022-09-09T00:27:47;100192.31;;;19.81;nan
3082;BME280;1551;51.046;7.010;2022-09-09T00:30:37;100194.25;;;19.78;nan
3082;BME280;1551;51.046;7.010;2022-09-09T00:33:26;100186.09;;;20.00;nan
3082;BME280;1551;51.046;7.010;2022-09-09T00:36:18;100196.19;;;19.90;nan
3082;BME280;1551;51.046;7.010;2022-09-09T00:39:38;100186.97;;;19.69;nan
3082;BME280;1551;51.046;7.010;2022-09-09T00:42:42;100194.69;;;19.55;nan
3082;BME280;1551;51.046;7.010;2022-09-09T00:55:34;100195.13;;;19.30;nan
3082;BME280;1551;51.046;7.010;2022-09-09T00:58:25;100204.09;;;19.25;nan
3082;BME280;1551;51.046;7.010;2022-09-09T01:01:16;100203.56;;;19.18;nan
3082;BME280;1551;51.046;7.010;2022-09-09T01:04:11;100197.56;;;19.33;nan
3082;BME280;1551;51.046;7.010;2022-09-09T01:07:16;100192.72;;;19.27;nan
3082;BME280;1551;51.046;7.010;2022-09-09T01:10:19;100175.88;;;19.18;nan
3082;BME280;1551;51.046;7.010;2022-09-09T01:13:17;100194.44;;;19.11;nan
3082;BME280;1551;51.046;7.010;2022-09-09T01:16:10;100205.31;;;19.02;nan
3082;BME280;1551;51.046;7.010;2022-09-09T01:19:02;100181.31;;;19.14;nan
3082;BME280;1551;51.046;7.010;2022-09-09T01:22:03;100196.13;;;19.12;nan
3082;BME280;1551;51.046;7.010;2022-09-09T01:28:34;100201.16;;;19.15;nan
3082;BME280;1551;51.046;7.010;2022-09-09T01:34:27;100194.53;;;19.09;nan
3082;BME280;1551;51.046;7.010;2022-09-09T01:37:17;100195.78;;;19.18;nan
3082;BME280;1551;51.046;7.010;2022-09-09T01:40:07;100195.72;;;19.19;nan
3082;BME280;1551;51.046;7.010;2022-09-09T01:42:57;100199.47;;;19.30;nan
3082;BME280;1551;51.046;7.010;2022-09-09T01:45:48;100190.84;;;19.13;nan
3082;BME280;1551;51.046;7.010;2022-09-09T01:48:39;100190.25;;;19.08;nan
3082;BME280;1551;51.046;7.010;2022-09-09T01:51:31;100195.44;;;19.08;nan
3082;BME280;1551;51.046;7.010;2022-09-09T01:54:27;100202.94;;;18.97;nan
3082;BME280;1551;51.046;7.010;2022-09-09T02:00:33;100200.75;;;18.90;nan
3082;BME280;1551;51.046;7.010;2022-09-09T02:03:27;100204.13;;;18.92;nan
3082;BME280;1551;51.046;7.010;2022-09-09T02:06:32;100203.44;;;18.88;nan
3082;BME280;1551;51.046;7.010;2022-09-09T02:09:30;100205.19;;;18.88;nan
3082;BME280;1551;51.046;7.010;2022-09-09T02:12:22;100204.19;;;18.90;nan
3082;BME280;1551;51.046;7.010;2022-09-09T02:15:26;100200.44;;;18.96;nan
3082;BME280;1551;51.046;7.010;2022-09-09T02:18:23;100206.53;;;18.95;nan
3082;BME280;1551;51.046;7.010;2022-09-09T02:21:15;100196.28;;;19.09;nan
3082;BME280;1551;51.046;7.010;2022-09-09T02:24:07;100192.66;;;18.96;nan
3082;BME280;1551;51.046;7.010;2022-09-09T02:27:03;100197.22;;;19.08;nan
3082;BME280;1551;51.046;7.010;2022-09-09T02:29:56;100201.44;;;18.93;nan
3082;BME280;1551;51.046;7.010;2022-09-09T02:33:03;100190.47;;;18.88;nan
3082;BME280;1551;51.046;7.010;2022-09-09T02:36:09;100190.78;;;18.82;nan
3082;BME280;1551;51.046;7.010;2022-09-09T02:39:00;100195.28;;;18.79;nan
3082;BME280;1551;51.046;7.010;2022-09-09T02:41:53;100198.88;;;18.76;nan
3082;BME280;1551;51.046;7.010;2022-09-09T02:44:50;100189.50;;;18.74;nan
3082;BME280;1551;51.046;7.010;2022-09-09T02:47:50;100182.84;;;18.85;nan
3082;BME280;1551;51.046;7.010;2022-09-09T02:51:04;100188.44;;;19.10;nan
3082;BME280;1551;51.046;7.010;2022-09-09T02:56:53;100194.72;;;19.22;nan
3082;BME280;1551;51.046;7.010;2022-09-09T02:59:56;100197.94;;;19.43;nan
3082;BME280;1551;51.046;7.010;2022-09-09T03:02:46;100195.59;;;19.38;nan
3082;BME280;1551;51.046;7.010;2022-09-09T03:05:36;100197.91;;;19.27;nan
3082;BME280;1551;51.046;7.010;2022-09-09T03:08:25;100187.47;;;19.75;nan
3082;BME280;1551;51.046;7.010;2022-09-09T03:11:16;100192.69;;;19.60;nan
3082;BME280;1551;51.046;7.010;2022-09-09T03:14:06;100182.09;;;19.32;nan
3082;BME280;1551;51.046;7.010;2022-09-09T03:16:55;100182.91;;;19.16;nan
3082;BME280;1551;51.046;7.010;2022-09-09T03:19:46;100181.75;;;19.22;nan
3082;BME280;1551;51.046;7.010;2022-09-09T03:22:36;100185.00;;;19.10;nan
3082;BME280;1551;51.046;7.010;2022-09-09T03:25:25;100177.88;;;19.13;nan
3082;BME280;1551;51.046;7.010;2022-09-09T03:28:15;100179.72;;;19.11;nan
3082;BME280;1551;51.046;7.010;2022-09-09T03:31:06;100174.03;;;19.05;nan
3082;BME280;1551;51.046;7.010;2022-09-09T03:34:01;100178.47;;;19.18;nan
3082;BME280;1551;51.046;7.010;2022-09-09T03:36:53;100168.78;;;19.22;nan
3082;BME280;1551;51.046;7.010;2022-09-09T03:39:43;100181.91;;;19.35;nan
3082;BME280;1551;51.046;7.010;2022-09-09T03:42:32;100178.97;;;19.25;nan
3082;BME280;1551;51.046;7.010;2022-09-09T03:45:22;100181.31;;;19.14;nan
3082;BME280;1551;51.046;7.010;2022-09-09T03:48:12;100180.72;;;19.09;nan
3082;BME280;1551;51.046;7.010;2022-09-09T03:51:01;100181.97;;;19.02;nan
3082;BME280;1551;51.046;7.010;2022-09-09T03:53:54;100181.41;;;19.12;nan
3082;BME280;1551;51.046;7.010;2022-09-09T03:56:48;100181.97;;;19.02;nan
3082;BME280;1551;51.046;7.010;2022-09-09T03:59:37;100183.78;;;19.00;nan
3082;BME280;1551;51.046;7.010;2022-09-09T04:02:27;100178.47;;;19.03;nan
3082;BME280;1551;51.046;7.010;2022-09-09T04:05:16;100182.31;;;19.11;nan
3082;BME280;1551;51.046;7.010;2022-09-09T04:08:07;100188.13;;;18.99;nan
3082;BME280;1551;51.046;7.010;2022-09-09T04:10:57;100189.91;;;18.99;nan
3082;BME280;1551;51.046;7.010;2022-09-09T04:13:48;100187.91;;;19.04;nan
3082;BME280;1551;51.046;7.010;2022-09-09T04:16:38;100180.47;;;19.13;nan
3082;BME280;1551;51.046;7.010;2022-09-09T04:19:27;100177.16;;;19.27;nan
3082;BME280;1551;51.046;7.010;2022-09-09T04:22:16;100178.97;;;19.25;nan
3082;BME280;1551;51.046;7.010;2022-09-09T04:25:06;100175.72;;;19.06;nan
3082;BME280;1551;51.046;7.010;2022-09-09T04:27:56;100165.66;;;19.15;nan
3082;BME280;1551;51.046;7.010;2022-09-09T04:30:46;100171.78;;;19.14;nan
3082;BME280;1551;51.046;7.010;2022-09-09T04:33:36;100166.91;;;19.08;nan
3082;BME280;1551;51.046;7.010;2022-09-09T04:36:25;100172.69;;;19.13;nan
3082;BME280;1551;51.046;7.010;2022-09-09T04:39:19;100175.03;;;19.02;nan
3082;BME280;1551;51.046;7.010;2022-09-09T04:42:08;100180.44;;;18.98;nan
3082;BME280;1551;51.046;7.010;2022-09-09T04:44:58;100191.78;;;19.12;nan
3082;BME280;1551;51.046;7.010;2022-09-09T04:47:47;100190.50;;;19.04;nan
3082;BME280;1551;51.046;7.010;2022-09-09T04:50:37;100187.66;;;19.08;nan
3082;BME280;1551;51.046;7.010;2022-09-09T04:53:29;100192.09;;;19.06;nan
3082;BME280;1551;51.046;7.010;2022-09-09T04:56:18;100192.50;;;18.99;nan
3082;BME280;1551;51.046;7.010;2022-09-09T04:59:16;100185.97;;;18.92;nan
3082;BME280;1551;51.046;7.010;2022-09-09T05:02:09;100190.81;;;18.98;nan
3082;BME280;1551;51.046;7.010;2022-09-09T05:04:58;100197.09;;;18.94;nan
3082;BME280;1551;51.046;7.010;2022-09-09T05:07:48;100188.88;;;18.86;nan
3082;BME280;1551;51.046;7.010;2022-09-09T05:10:38;100191.56;;;18.84;nan
3082;BME280;1551;51.046;7.010;2022-09-09T05:13:27;100183.25;;;18.78;nan
3082;BME280;1551;51.046;7.010;2022-09-09T05:16:17;100185.91;;;18.76;nan
3082;BME280;1551;51.046;7.010;2022-09-09T05:19:07;100181.19;;;18.84;nan
3082;BME280;1551;51.046;7.010;2022-09-09T05:22:06;100191.19;;;18.75;nan
3082;BME280;1551;51.046;7.010;2022-09-09T05:25:03;100188.75;;;18.72;nan
3082;BME280;1551;51.046;7.010;2022-09-09T05:27:53;100180.44;;;18.65;nan
3082;BME280;1551;51.046;7.010;2022-09-09T05:30:43;100179.75;;;18.62;nan
3082;BME280;1551;51.046;7.010;2022-09-09T05:33:32;100179.41;;;18.52;nan
3082;BME280;1551;51.046;7.010;2022-09-09T05:36:22;100178.16;;;18.42;nan
3082;BME280;1551;51.046;7.010;2022-09-09T05:39:17;100183.81;;;18.50;nan
3082;BME280;1551;51.046;7.010;2022-09-09T05:42:06;100184.88;;;18.46;nan
3082;BME280;1551;51.046;7.010;2022-09-09T05:44:56;100183.56;;;18.37;nan
3082;BME280;1551;51.046;7.010;2022-09-09T05:47:51;100178.28;;;18.22;nan
3082;BME280;1551;51.046;7.010;2022-09-09T05:50:42;100191.94;;;18.25;nan
3082;BME280;1551;51.046;7.010;2022-09-09T05:53:31;100189.28;;;18.10;nan
3082;BME280;1551;51.046;7.010;2022-09-09T05:56:23;100195.97;;;18.14;nan
3082;BME280;1551;51.046;7.010;2022-09-09T05:59:14;100199.31;;;18.16;nan
3082;BME280;1551;51.046;7.010;2022-09-09T06:02:03;100195.53;;;18.23;nan
3082;BME280;1551;51.046;7.010;2022-09-09T06:04:57;100193.16;;;18.18;nan
3082;BME280;1551;51.046;7.010;2022-09-09T06:07:47;100186.91;;;18.22;nan
3082;BME280;1551;51.046;7.010;2022-09-09T06:10:36;100188.88;;;18.17;nan
3082;BME280;1551;51.046;7.010;2022-09-09T06:13:25;100190.44;;;18.21;nan
3082;BME280;1551;51.046;7.010;2022-09-09T06:16:17;100189.22;;;18.28;nan
3082;BME280;1551;51.046;7.010;2022-09-09T06:19:06;100193.66;;;18.61;nan
3082;BME280;1551;51.046;7.010;2022-09-09T06:21:57;100194.19;;;18.83;nan
3082;BME280;1551;51.046;7.010;2022-09-09T06:24:46;100200.41;;;19.13;nan
3082;BME280;1551;51.046;7.010;2022-09-09T06:27:35;100201.31;;;19.12;nan
3082;BME280;1551;51.046;7.010;2022-09-09T06:30:24;100198.72;;;19.12;nan
3082;BME280;1551;51.046;7.010;2022-09-09T06:33:12;100205.25;;;19.36;nan
3082;BME280;1551;51.046;7.010;2022-09-09T06:36:03;100189.22;;;19.44;nan
3082;BME280;1551;51.046;7.010;2022-09-09T06:38:53;100203.00;;;19.46;nan
3082;BME280;1551;51.046;7.010;2022-09-09T06:41:42;100204.00;;;19.26;nan
3082;BME280;1551;51.046;7.010;2022-09-09T06:44:42;100199.66;;;19.27;nan
3082;BME280;1551;51.046;7.010;2022-09-09T06:47:36;100201.81;;;19.36;nan
3082;BME280;1551;51.046;7.010;2022-09-09T06:50:26;100195.50;;;19.40;nan
3082;BME280;1551;51.046;7.010;2022-09-09T06:53:16;100202.66;;;19.35;nan
3082;BME280;1551;51.046;7.010;2022-09-09T06:59:04;100190.75;;;19.48;nan
3082;BME280;1551;51.046;7.010;2022-09-09T07:01:54;100198.34;;;19.51;nan
3082;BME280;1551;51.046;7.010;2022-09-09T07:04:44;100186.38;;;19.95;nan
3082;BME280;1551;51.046;7.010;2022-09-09T07:07:33;100191.66;;;20.53;nan
3082;BME280;1551;51.046;7.010;2022-09-09T07:10:23;100191.59;;;20.69;nan
3082;BME280;1551;51.046;7.010;2022-09-09T07:13:13;100186.72;;;21.06;nan
3082;BME280;1551;51.046;7.010;2022-09-09T07:16:08;100189.75;;;21.27;nan
3082;BME280;1551;51.046;7.010;2022-09-09T07:18:58;100200.09;;;21.14;nan
3082;BME280;1551;51.046;7.010;2022-09-09T07:21:47;100193.84;;;21.03;nan
3082;BME280;1551;51.046;7.010;2022-09-09T07:24:40;100197.25;;;21.03;nan
3082;BME280;1551;51.046;7.010;2022-09-09T07:27:29;100200.28;;;21.11;nan
3082;BME280;1551;51.046;7.010;2022-09-09T07:30:19;100202.97;;;21.10;nan
3082;BME280;1551;51.046;7.010;2022-09-09T07:33:08;100211.66;;;20.81;nan
3082;BME280;1551;51.046;7.010;2022-09-09T07:36:08;100220.47;;;20.64;nan
3082;BME280;1551;51.046;7.010;2022-09-09T07:39:00;100214.41;;;20.49;nan
3082;BME280;1551;51.046;7.010;2022-09-09T07:41:52;100218.97;;;20.60;nan
3082;BME280;1551;51.046;7.010;2022-09-09T07:44:45;100212.13;;;20.73;nan
3082;BME280;1551;51.046;7.010;2022-09-09T07:47:37;100224.13;;;21.04;nan
3082;BME280;1551;51.046;7.010;2022-09-09T07:50:26;100221.16;;;20.96;nan
3082;BME280;1551;51.046;7.010;2022-09-09T07:53:16;100231.38;;;20.99;nan
3082;BME280;1551;51.046;7.010;2022-09-09T07:56:07;100226.59;;;21.07;nan
3082;BME280;1551;51.046;7.010;2022-09-09T07:58:57;100231.38;;;21.41;nan
3082;BME280;1551;51.046;7.010;2022-09-09T08:01:52;100237.34;;;21.43;nan
3082;BME280;1551;51.046;7.010;2022-09-09T08:04:44;100234.16;;;21.38;nan
3082;BME280;1551;51.046;7.010;2022-09-09T08:07:33;100229.25;;;21.19;nan
3082;BME280;1551;51.046;7.010;2022-09-09T08:10:22;100229.88;;;20.95;nan
3082;BME280;1551;51.046;7.010;2022-09-09T08:13:13;100231.28;;;20.72;nan
3082;BME280;1551;51.046;7.010;2022-09-09T08:16:12;100235.38;;;20.90;nan
3082;BME280;1551;51.046;7.010;2022-09-09T08:19:04;100227.09;;;20.84;nan
3082;BME280;1551;51.046;7.010;2022-09-09T08:21:55;100228.13;;;20.81;nan
3082;BME280;1551;51.046;7.010;2022-09-09T08:24:44;100227.91;;;20.84;nan
3082;BME280;1551;51.046;7.010;2022-09-09T08:27:33;100220.59;;;20.77;nan
3082;BME280;1551;51.046;7.010;2022-09-09T08:30:22;100222.91;;;20.67;nan
3082;BME280;1551;51.046;7.010;2022-09-09T08:33:12;100225.94;;;20.60;nan
3082;BME280;1551;51.046;7.010;2022-09-09T08:36:01;100220.47;;;20.78;nan
3082;BME280;1551;51.046;7.010;2022-09-09T08:38:55;100227.38;;;20.93;nan
3082;BME280;1551;51.046;7.010;2022-09-09T08:42:13;100235.69;;;21.14;nan
3082;BME280;1551;51.046;7.010;2022-09-09T08:45:19;100232.34;;;21.26;nan
3082;BME280;1551;51.046;7.010;2022-09-09T08:51:21;100234.44;;;21.48;nan
3082;BME280;1551;51.046;7.010;2022-09-09T08:54:11;100245.22;;;21.56;nan
3082;BME280;1551;51.046;7.010;2022-09-09T08:57:00;100231.88;;;21.19;nan
3082;BME280;1551;51.046;7.010;2022-09-09T08:59:50;100234.47;;;21.19;nan
3082;BME280;1551;51.046;7.010;2022-09-09T09:02:52;100247.13;;;21.11;nan
3082;BME280;1551;51.046;7.010;2022-09-09T09:06:01;100238.81;;;20.91;nan
3082;BME280;1551;51.046;7.010;2022-09-09T09:09:01;100237.06;;;21.05;nan
3082;BME280;1551;51.046;7.010;2022-09-09T09:11:56;100246.19;;;21.12;nan
3082;BME280;1551;51.046;7.010;2022-09-09T09:14:53;100249.63;;;21.27;nan
3082;BME280;1551;51.046;7.010;2022-09-09T09:17:44;100247.84;;;21.42;nan
3082;BME280;1551;51.046;7.010;2022-09-09T09:20:58;100260.97;;;21.54;nan
3082;BME280;1551;51.046;7.010;2022-09-09T09:23:56;100250.81;;;21.64;nan
3082;BME280;1551;51.046;7.010;2022-09-09T09:26:47;100242.81;;;21.39;nan
3082;BME280;1551;51.046;7.010;2022-09-09T09:29:37;100238.28;;;21.42;nan
3082;BME280;1551;51.046;7.010;2022-09-09T09:32:32;100248.13;;;21.37;nan
3082;BME280;1551;51.046;7.010;2022-09-09T09:35:23;100244.41;;;21.41;nan
3082;BME280;1551;51.046;7.010;2022-09-09T09:38:18;100233.06;;;21.42;nan
3082;BME280;1551;51.046;7.010;2022-09-09T09:41:09;100251.00;;;21.47;nan
3082;BME280;1551;51.046;7.010;2022-09-09T09:43:59;100251.38;;;21.41;nan
3082;BME280;1551;51.046;7.010;2022-09-09T09:46:51;100248.72;;;21.28;nan
3082;BME280;1551;51.046;7.010;2022-09-09T09:49:58;100250.84;;;21.21;nan
3082;BME280;1551;51.046;7.010;2022-09-09T09:53:02;100246.56;;;21.20;nan
3082;BME280;1551;51.046;7.010;2022-09-09T09:55:59;100266.81;;;21.30;nan
3082;BME280;1551;51.046;7.010;2022-09-09T09:58:50;100262.34;;;21.17;nan
3082;BME280;1551;51.046;7.010;2022-09-09T10:01:43;100263.38;;;21.15;nan
3082;BME280;1551;51.046;7.010;2022-09-09T10:04:33;100256.13;;;21.34;nan
3082;BME280;1551;51.046;7.010;2022-09-09T10:07:23;100255.16;;;21.92;nan
3082;BME280;1551;51.046;7.010;2022-09-09T10:10:18;100258.53;;;23.10;nan
3082;BME280;1551;51.046;7.010;2022-09-09T10:13:20;100256.75;;;22.98;nan
3082;BME280;1551;51.046;7.010;2022-09-09T10:19:40;100252.41;;;22.86;nan
3082;BME280;1551;51.046;7.010;2022-09-09T10:22:33;100233.78;;;22.65;nan
3082;BME280;1551;51.046;7.010;2022-09-09T10:25:40;100244.84;;;22.94;nan
3082;BME280;1551;51.046;7.010;2022-09-09T10:29:37;100246.56;;;22.55;nan
3082;BME280;1551;51.046;7.010;2022-09-09T10:32:22;100242.00;;;22.59;nan
3082;BME280;1551;51.046;7.010;2022-09-09T10:35:46;100249.66;;;23.25;nan
3082;BME280;1551;51.046;7.010;2022-09-09T10:38:42;100239.22;;;22.75;nan
3082;BME280;1551;51.046;7.010;2022-09-09T10:41:48;100241.88;;;22.48;nan
3082;BME280;1551;51.046;7.010;2022-09-09T10:48:16;100237.03;;;22.29;nan
3082;BME280;1551;51.046;7.010;2022-09-09T10:54:23;100236.38;;;22.26;nan
3082;BME280;1551;51.046;7.010;2022-09-09T10:57:29;100241.22;;;22.96;nan
3082;BME280;1551;51.046;7.010;2022-09-09T11:00:23;100246.53;;;22.95;nan
3082;BME280;1551;51.046;7.010;2022-09-09T11:03:19;100230.13;;;22.68;nan
3082;BME280;1551;51.046;7.010;2022-09-09T11:06:15;100229.69;;;24.33;nan
3082;BME280;1551;51.046;7.010;2022-09-09T11:09:15;100229.72;;;26.10;nan
3082;BME280;1551;51.046;7.010;2022-09-09T11:12:13;100218.31;;;24.56;nan
3082;BME280;1551;51.046;7.010;2022-09-09T11:15:09;100206.91;;;23.51;nan
3082;BME280;1551;51.046;7.010;2022-09-09T11:18:04;100215.28;;;24.73;nan
3082;BME280;1551;51.046;7.010;2022-09-09T11:20:59;100208.44;;;24.59;nan
3082;BME280;1551;51.046;7.010;2022-09-09T11:23:54;100219.72;;;24.38;nan
3082;BME280;1551;51.046;7.010;2022-09-09T11:26:55;100209.91;;;23.58;nan
3082;BME280;1551;51.046;7.010;2022-09-09T11:39:28;100220.69;;;22.52;nan
3082;BME280;1551;51.046;7.010;2022-09-09T11:42:24;100229.34;;;22.14;nan
3082;BME280;1551;51.046;7.010;2022-09-09T11:45:23;100216.19;;;22.03;nan
3082;BME280;1551;51.046;7.010;2022-09-09T11:54:32;100213.28;;;22.07;nan
3082;BME280;1551;51.046;7.010;2022-09-09T11:57:32;100216.53;;;22.11;nan
3082;BME280;1551;51.046;7.010;2022-09-09T12:00:40;100223.28;;;22.01;nan
3082;BME280;1551;51.046;7.010;2022-09-09T12:03:49;100207.16;;;22.08;nan
3082;BME280;1551;51.046;7.010;2022-09-09T12:06:53;100216.25;;;22.15;nan
3082;BME280;1551;51.046;7.010;2022-09-09T12:09:47;100210.06;;;22.16;nan
3082;BME280;1551;51.046;7.010;2022-09-09T12:12:37;100213.88;;;22.25;nan
3082;BME280;1551;51.046;7.010;2022-09-09T12:15:28;100217.56;;;22.08;nan
3082;BME280;1551;51.046;7.010;2022-09-09T12:18:25;100209.28;;;22.02;nan
3082;BME280;1551;51.046;7.010;2022-09-09T12:21:39;100211.38;;;21.97;nan
3082;BME280;1551;51.046;7.010;2022-09-09T12:24:37;100211.28;;;21.98;nan
3082;BME280;1551;51.046;7.010;2022-09-09T12:27:34;100204.69;;;21.92;nan
3082;BME280;1551;51.046;7.010;2022-09-09T12:30:35;100208.03;;;21.95;nan
3082;BME280;1551;51.046;7.010;2022-09-09T12:33:34;100207.97;;;22.09;nan
3082;BME280;1551;51.046;7.010;2022-09-09T12:36:29;100218.00;;;22.15;nan
3082;BME280;1551;51.046;7.010;2022-09-09T12:39:35;100206.19;;;21.97;nan
3082;BME280;1551;51.046;7.010;2022-09-09T12:42:26;100200.69;;;22.14;nan
3082;BME280;1551;51.046;7.010;2022-09-09T12:45:21;100202.06;;;22.19;nan
3082;BME280;1551;51.046;7.010;2022-09-09T12:48:11;100197.34;;;22.12;nan
3082;BME280;1551;51.046;7.010;2022-09-09T12:51:07;100201.72;;;22.11;nan
3082;BME280;1551;51.046;7.010;2022-09-09T12:54:05;100185.66;;;22.05;nan
3082;BME280;1551;51.046;7.010;2022-09-09T12:56:55;100197.91;;;21.90;nan
3082;BME280;1551;51.046;7.010;2022-09-09T12:59:44;100197.41;;;21.71;nan
3082;BME280;1551;51.046;7.010;2022-09-09T13:02:34;100244.28;;;21.71;nan
3082;BME280;1551;51.046;7.010;2022-09-09T13:05:28;100218.31;;;21.29;nan
3082;BME280;1551;51.046;7.010;2022-09-09T13:08:23;100217.22;;;22.00;nan
3082;BME280;1551;51.046;7.010;2022-09-09T13:11:17;100216.59;;;23.85;nan
3082;BME280;1551;51.046;7.010;2022-09-09T13:14:16;100219.91;;;24.70;nan
3082;BME280;1551;51.046;7.010;2022-09-09T13:17:19;100213.56;;;24.50;nan
3082;BME280;1551;51.046;7.010;2022-09-09T13:20:17;100200.19;;;23.83;nan
3082;BME280;1551;51.046;7.010;2022-09-09T13:23:11;100201.69;;;23.51;nan
3082;BME280;1551;51.046;7.010;2022-09-09T13:26:06;100196.72;;;23.10;nan
3082;BME280;1551;51.046;7.010;2022-09-09T13:29:17;100209.06;;;22.83;nan
3082;BME280;1551;51.046;7.010;2022-09-09T13:32:18;100194.47;;;22.29;nan
3082;BME280;1551;51.046;7.010;2022-09-09T13:35:23;100184.25;;;21.99;nan
3082;BME280;1551;51.046;7.010;2022-09-09T13:38:14;100182.94;;;22.06;nan
3082;BME280;1551;51.046;7.010;2022-09-09T13:41:06;100175.88;;;22.08;nan
3082;BME280;1551;51.046;7.010;2022-09-09T13:43:56;100178.78;;;22.04;nan
3082;BME280;1551;51.046;7.010;2022-09-09T13:46:46;100180.53;;;22.03;nan
3082;BME280;1551;51.046;7.010;2022-09-09T13:49:35;100183.22;;;22.02;nan
3082;BME280;1551;51.046;7.010;2022-09-09T13:52:26;100186.56;;;22.43;nan
3082;BME280;1551;51.046;7.010;2022-09-09T13:55:15;100171.88;;;22.67;nan
3082;BME280;1551;51.046;7.010;2022-09-09T13:58:04;100176.19;;;22.81;nan
3082;BME280;1551;51.046;7.010;2022-09-09T14:00:54;100172.41;;;22.97;nan
3082;BME280;1551;51.046;7.010;2022-09-09T14:03:43;100168.03;;;23.34;nan
3082;BME280;1551;51.046;7.010;2022-09-09T14:06:32;100164.59;;;23.46;nan
3082;BME280;1551;51.046;7.010;2022-09-09T14:09:25;100164.66;;;23.21;nan
3082;BME280;1551;51.046;7.010;2022-09-09T14:12:15;100164.66;;;23.08;nan
3082;BME280;1551;51.046;7.010;2022-09-09T14:15:05;100161.13;;;22.97;nan
3082;BME280;1551;51.046;7.010;2022-09-09T14:17:55;100157.91;;;22.81;nan
3082;BME280;1551;51.046;7.010;2022-09-09T14:20:44;100163.78;;;22.72;nan
3082;BME280;1551;51.046;7.010;2022-09-09T14:23:34;100181.56;;;22.52;nan
3082;BME280;1551;51.046;7.010;2022-09-09T14:26:23;100165.25;;;22.24;nan
3082;BME280;1551;51.046;7.010;2022-09-09T14:29:12;100199.63;;;22.04;nan
3082;BME280;1551;51.046;7.010;2022-09-09T14:32:01;100213.72;;;21.46;nan
3082;BME280;1551;51.046;7.010;2022-09-09T14:34:50;100219.22;;;20.41;nan
3082;BME280;1551;51.046;7.010;2022-09-09T14:37:39;100205.16;;;20.14;nan
3082;BME280;1551;51.046;7.010;2022-09-09T14:40:28;100208.41;;;19.72;nan
3082;BME280;1551;51.046;7.010;2022-09-09T14:43:17;100189.91;;;18.99;nan
3082;BME280;1551;51.046;7.010;2022-09-09T14:46:08;100209.88;;;18.97;nan
3082;BME280;1551;51.046;7.010;2022-09-09T14:48:58;100205.16;;;19.05;nan
3082;BME280;1551;51.046;7.010;2022-09-09T14:51:48;100201.81;;;19.03;nan
3082;BME280;1551;51.046;7.010;2022-09-09T14:54:37;100187.09;;;18.71;nan
3082;BME280;1551;51.046;7.010;2022-09-09T14:57:26;100193.03;;;18.56;nan
3082;BME280;1551;51.046;7.010;2022-09-09T15:00:15;100187.47;;;18.63;nan
3082;BME280;1551;51.046;7.010;2022-09-09T15:03:04;100195.25;;;18.96;nan
3082;BME280;1551;51.046;7.010;2022-09-09T15:05:55;100198.91;;;19.25;nan
3082;BME280;1551;51.046;7.010;2022-09-09T15:08:45;100195.44;;;19.57;nan
3082;BME280;1551;51.046;7.010;2022-09-09T15:11:36;100192.59;;;19.61;nan
3082;BME280;1551;51.046;7.010;2022-09-09T15:14:26;100190.72;;;19.79;nan
3082;BME280;1551;51.046;7.010;2022-09-09T15:17:16;100195.06;;;19.94;nan
3082;BME280;1551;51.046;7.010;2022-09-09T15:20:06;100199.75;;;20.03;nan
3082;BME280;1551;51.046;7.010;2022-09-09T15:22:55;100201.16;;;20.24;nan
3082;BME280;1551;51.046;7.010;2022-09-09T15:25:53;100201.03;;;20.41;nan
3082;BME280;1551;51.046;7.010;2022-09-09T15:28:44;100198.06;;;20.47;nan
3082;BME280;1551;51.046;7.010;2022-09-09T15:31:34;100197.44;;;20.58;nan
3082;BME280;1551;51.046;7.010;2022-09-09T15:34:23;100195.75;;;20.57;nan
3082;BME280;1551;51.046;7.010;2022-09-09T15:37:13;100192.50;;;20.53;nan
3082;BME280;1551;51.046;7.010;2022-09-09T15:40:02;100193.81;;;20.61;nan
3082;BME280;1551;51.046;7.010;2022-09-09T15:42:52;100189.06;;;20.53;nan
3082;BME280;1551;51.046;7.010;2022-09-09T15:45:41;100191.56;;;20.54;nan
3082;BME280;1551;51.046;7.010;2022-09-09T15:48:30;100189.78;;;20.41;nan
3082;BME280;1551;51.046;7.010;2022-09-09T15:51:23;100194.84;;;20.58;nan
3082;BME280;1551;51.046;7.010;2022-09-09T15:54:19;100197.66;;;20.83;nan
3082;BME280;1551;51.046;7.010;2022-09-09T15:57:11;100183.78;;;20.83;nan
3082;BME280;1551;51.046;7.010;2022-09-09T16:00:03;100200.69;;;20.76;nan
3082;BME280;1551;51.046;7.010;2022-09-09T16:02:53;100202.25;;;20.64;nan
3082;BME280;1551;51.046;7.010;2022-09-09T16:05:42;100218.50;;;20.53;nan
3082;BME280;1551;51.046;7.010;2022-09-09T16:08:37;100214.78;;;20.58;nan
3082;BME280;1551;51.046;7.010;2022-09-09T16:11:29;100217.16;;;20.76;nan
3082;BME280;1551;51.046;7.010;2022-09-09T16:14:20;100224.94;;;20.62;nan
3082;BME280;1551;51.046;7.010;2022-09-09T16:17:09;100229.22;;;20.33;nan
3082;BME280;1551;51.046;7.010;2022-09-09T16:19:58;100226.28;;;20.24;nan
3082;BME280;1551;51.046;7.010;2022-09-09T16:22:47;100224.69;;;20.37;nan
3082;BME280;1551;51.046;7.010;2022-09-09T16:25:36;100224.03;;;20.18;nan
3082;BME280;1551;51.046;7.010;2022-09-09T16:28:25;100226.78;;;20.15;nan
3082;BME280;1551;51.046;7.010;2022-09-09T16:31:20;100220.06;;;19.81;nan
3082;BME280;1551;51.046;7.010;2022-09-09T16:34:10;100228.88;;;19.78;nan
3082;BME280;1551;51.046;7.010;2022-09-09T16:36:59;100223.31;;;19.84;nan
3082;BME280;1551;51.046;7.010;2022-09-09T16:39:50;100237.63;;;19.92;nan
3082;BME280;1551;51.046;7.010;2022-09-09T16:42:40;100234.78;;;19.96;nan
3082;BME280;1551;51.046;7.010;2022-09-09T16:45:29;100238.97;;;19.99;nan
3082;BME280;1551;51.046;7.010;2022-09-09T16:48:19;100234.41;;;20.33;nan
3082;BME280;1551;51.046;7.010;2022-09-09T16:51:13;100231.72;;;20.19;nan
3082;BME280;1551;51.046;7.010;2022-09-09T16:54:05;100229.06;;;20.21;nan